createdAt,value
2023-09-11T00:02:34.828Z,12.68
2023-09-11T00:05:43.634Z,11.53
2023-09-11T00:08:47.602Z,11.80
2023-09-11T00:11:53.666Z,11.53
2023-09-11T00:14:59.750Z,11.85
2023-09-11T00:18:05.448Z,13.03
2023-09-11T00:21:10.834Z,12.78
2023-09-11T00:24:16.577Z,12.05
2023-09-11T00:27:22.196Z,12.65
2023-09-11T00:30:28.798Z,12.47
2023-09-11T00:33:34.355Z,12.10
2023-09-11T00:36:41.162Z,11.95
2023-09-11T00:39:46.835Z,11.60
2023-09-11T00:42:52.439Z,12.80
2023-09-11T00:45:59.860Z,12.93
2023-09-11T00:49:08.495Z,12.95
2023-09-11T00:52:14.150Z,13.58
2023-09-11T00:55:20.167Z,14.38
2023-09-11T00:58:25.810Z,13.62
2023-09-11T01:01:31.373Z,13.75
2023-09-11T01:04:36.866Z,12.53
2023-09-11T01:07:43.208Z,15.30
2023-09-11T01:10:49.008Z,15.70
2023-09-11T01:13:53.763Z,13.78
2023-09-11T01:17:16.228Z,14.10
2023-09-11T01:20:51.864Z,14.73
2023-09-11T01:24:22.392Z,13.62
2023-09-11T01:27:35.066Z,14.83
2023-09-11T01:30:40.771Z,15.18
2023-09-11T01:33:46.238Z,15.85
2023-09-11T01:36:52.931Z,14.35
2023-09-11T01:39:58.496Z,15.63
2023-09-11T01:43:07.230Z,15.05
2023-09-11T01:46:12.493Z,15.98
2023-09-11T01:49:17.974Z,16.12
2023-09-11T01:52:25.598Z,14.85
2023-09-11T01:55:31.372Z,15.45
2023-09-11T01:58:37.113Z,15.80
2023-09-11T02:01:43.236Z,16.25
2023-09-11T02:04:48.927Z,15.00
2023-09-11T02:07:55.440Z,16.55
2023-09-11T02:11:02.418Z,14.75
2023-09-11T02:14:08.632Z,14.87
2023-09-11T02:17:13.721Z,15.18
2023-09-11T02:20:21.227Z,13.65
2023-09-11T02:23:26.013Z,15.60
2023-09-11T02:26:32.820Z,16.57
2023-09-11T02:29:39.773Z,15.63
2023-09-11T02:32:46.043Z,14.33
2023-09-11T02:35:53.079Z,15.18
2023-09-11T02:38:59.366Z,14.65
2023-09-11T02:42:05.274Z,14.98
2023-09-11T02:45:11.682Z,15.20
2023-09-11T02:48:18.836Z,14.45
2023-09-11T02:51:25.282Z,14.40
2023-09-11T02:54:30.265Z,14.25
2023-09-11T02:57:35.821Z,15.28
2023-09-11T03:00:40.979Z,14.50
2023-09-11T03:03:47.201Z,15.30
2023-09-11T03:06:53.569Z,14.15
2023-09-11T03:09:59.744Z,15.45
2023-09-11T03:13:05.980Z,14.28
2023-09-11T03:16:10.912Z,15.05
2023-09-11T03:19:18.740Z,16.05
2023-09-11T03:22:24.316Z,16.37
2023-09-11T03:25:29.249Z,15.68
2023-09-11T03:28:34.154Z,15.68
2023-09-11T03:31:39.427Z,15.90
2023-09-11T03:34:44.658Z,15.40
2023-09-11T03:37:50.445Z,14.85
2023-09-11T03:40:55.617Z,14.90
2023-09-11T03:44:00.929Z,15.35
2023-09-11T03:47:05.877Z,15.40
2023-09-11T03:50:12.299Z,15.45
2023-09-11T03:53:18.210Z,14.75
2023-09-11T03:56:23.632Z,13.05
2023-09-11T03:59:29.524Z,14.38
2023-09-11T04:02:34.580Z,14.33
2023-09-11T04:05:40.447Z,14.60
2023-09-11T04:08:47.059Z,15.13
2023-09-11T04:11:53.694Z,13.60
2023-09-11T04:15:01.319Z,13.80
2023-09-11T04:18:07.042Z,13.90
2023-09-11T04:21:17.972Z,13.90
2023-09-11T04:24:23.392Z,14.33
2023-09-11T04:27:28.771Z,13.48
2023-09-11T04:30:34.750Z,14.40
2023-09-11T04:33:39.817Z,13.58
2023-09-11T04:36:45.531Z,14.28
2023-09-11T04:39:52.715Z,13.72
2023-09-11T04:42:59.530Z,13.65
2023-09-11T04:46:04.732Z,14.63
2023-09-11T04:49:09.557Z,13.35
2023-09-11T04:52:14.680Z,12.88
2023-09-11T04:55:21.036Z,12.35
2023-09-11T04:58:27.332Z,13.13
2023-09-11T05:01:32.130Z,11.18
2023-09-11T05:04:37.584Z,12.98
2023-09-11T05:07:44.269Z,11.53
2023-09-11T05:10:49.951Z,11.93
2023-09-11T05:13:56.269Z,11.30
2023-09-11T05:17:04.358Z,12.30
2023-09-11T05:20:10.262Z,12.58
2023-09-11T05:23:15.466Z,11.25
2023-09-11T05:26:20.959Z,12.45
2023-09-11T05:29:26.562Z,10.78
2023-09-11T05:32:33.741Z,12.07
2023-09-11T05:35:39.977Z,11.45
2023-09-11T05:38:46.057Z,10.90
2023-09-11T05:41:52.541Z,11.85
2023-09-11T05:44:58.168Z,11.18
2023-09-11T05:48:04.133Z,10.95
2023-09-11T05:51:02.779Z,11.25
2023-09-11T05:54:08.558Z,9.53
2023-09-11T05:57:14.214Z,9.33
2023-09-11T06:00:21.012Z,10.85
2023-09-11T06:03:26.436Z,11.40
2023-09-11T06:06:32.105Z,10.08
2023-09-11T06:09:37.899Z,9.80
2023-09-11T06:12:43.670Z,10.18
2023-09-11T06:15:51.185Z,10.05
2023-09-11T06:18:58.242Z,11.15
2023-09-11T06:22:05.031Z,10.55
2023-09-11T06:25:13.498Z,9.70
2023-09-11T06:28:19.903Z,9.08
2023-09-11T06:31:25.362Z,8.60
2023-09-11T06:34:31.983Z,8.55
2023-09-11T06:42:07.001Z,8.05
2023-09-11T06:45:13.350Z,7.50
2023-09-11T06:48:18.866Z,7.60
2023-09-11T06:51:24.672Z,7.20
2023-09-11T06:54:31.508Z,6.92
2023-09-11T06:57:37.484Z,6.05
2023-09-11T07:00:43.041Z,7.03
2023-09-11T07:03:48.298Z,5.87
2023-09-11T07:06:55.005Z,5.95
2023-09-11T07:10:02.177Z,6.97
2023-09-11T07:13:07.551Z,6.17
2023-09-11T07:16:16.389Z,5.55
2023-09-11T07:19:22.010Z,4.25
2023-09-11T07:22:26.852Z,4.28
2023-09-11T07:25:31.586Z,4.87
2023-09-11T07:28:37.847Z,4.72
2023-09-11T07:31:43.784Z,4.50
2023-09-11T07:34:50.729Z,5.83
2023-09-11T07:38:01.676Z,5.03
2023-09-11T07:41:08.090Z,4.37
2023-09-11T07:44:14.638Z,4.60
2023-09-11T07:47:22.562Z,4.42
2023-09-11T07:50:28.949Z,4.60
2023-09-11T07:53:34.167Z,4.87
2023-09-11T07:56:41.342Z,4.55
2023-09-11T07:59:46.207Z,4.25
2023-09-11T08:02:55.082Z,4.05
2023-09-11T08:06:03.121Z,4.55
2023-09-11T08:09:10.008Z,4.47
2023-09-11T08:12:16.750Z,3.83
2023-09-11T08:15:22.652Z,4.67
2023-09-11T08:18:29.695Z,4.17
2023-09-11T08:21:36.211Z,4.05
2023-09-11T08:24:41.762Z,4.47
2023-09-11T08:27:47.441Z,4.35
2023-09-11T08:30:54.061Z,4.37
2023-09-11T08:33:59.555Z,3.80
2023-09-11T08:37:04.764Z,4.20
2023-09-11T08:40:09.810Z,4.30
2023-09-11T08:43:15.868Z,3.90
2023-09-11T08:46:25.243Z,4.22
2023-09-11T08:49:33.968Z,3.37
2023-09-11T08:52:41.007Z,4.05
2023-09-11T08:55:48.450Z,3.40
2023-09-11T08:58:54.611Z,3.25
2023-09-11T09:02:00.478Z,3.30
2023-09-11T09:05:06.457Z,3.58
2023-09-11T09:08:12.231Z,3.50
2023-09-11T09:11:18.740Z,3.22
2023-09-11T09:14:25.281Z,3.50
2023-09-11T09:17:26.704Z,3.67
2023-09-11T09:20:20.356Z,3.33
2023-09-11T09:23:29.093Z,3.02
2023-09-11T09:26:38.139Z,2.83
2023-09-11T09:29:53.302Z,3.47
2023-09-11T09:33:00.066Z,3.15
2023-09-11T09:36:07.248Z,3.12
2023-09-11T09:39:12.489Z,3.12
2023-09-11T09:42:20.373Z,3.47
2023-09-11T09:45:30.254Z,2.98
2023-09-11T09:48:37.072Z,3.40
2023-09-11T09:51:43.038Z,3.52
2023-09-11T09:55:06.633Z,3.87
2023-09-11T09:58:13.260Z,3.67
2023-09-11T10:01:33.839Z,4.10
2023-09-11T10:07:59.599Z,3.83
2023-09-11T10:11:05.253Z,3.72
2023-09-11T10:14:13.457Z,3.90
2023-09-11T10:17:19.204Z,4.08
2023-09-11T10:20:29.452Z,4.55
2023-09-11T10:23:35.403Z,4.10
2023-09-11T10:27:03.393Z,4.05
2023-09-11T10:30:20.146Z,4.17
2023-09-11T10:33:37.287Z,4.28
2023-09-11T10:36:51.748Z,3.92
2023-09-11T10:39:57.197Z,4.00
2023-09-11T10:43:04.147Z,4.30
2023-09-11T10:46:10.582Z,4.42
2023-09-11T10:49:16.561Z,4.12
2023-09-11T10:52:24.436Z,3.72
2023-09-11T10:55:31.829Z,3.83
2023-09-11T10:58:38.268Z,3.65
2023-09-11T11:01:43.743Z,4.05
2023-09-11T11:04:48.945Z,4.25
2023-09-11T11:07:54.661Z,4.05
2023-09-11T11:11:08.148Z,3.62
2023-09-11T11:14:33.540Z,3.62
2023-09-11T11:17:39.220Z,3.52
2023-09-11T11:20:45.603Z,3.92
2023-09-11T11:23:54.303Z,3.62
2023-09-11T11:26:59.552Z,3.83
2023-09-11T11:30:06.156Z,4.40
2023-09-11T11:33:11.827Z,3.67
2023-09-11T11:36:23.596Z,3.72
2023-09-11T11:39:31.211Z,3.95
2023-09-11T11:42:40.720Z,3.67
2023-09-11T11:45:45.514Z,3.55
2023-09-11T11:48:52.366Z,11.50
2023-09-11T11:51:58.822Z,3.65
2023-09-11T11:55:04.228Z,4.05
2023-09-11T11:58:11.460Z,3.60
2023-09-11T12:01:20.940Z,4.15
2023-09-11T12:04:41.330Z,4.53
2023-09-11T12:07:30.436Z,4.40
2023-09-11T12:10:19.910Z,4.00
2023-09-11T12:13:12.736Z,4.12
2023-09-11T12:16:06.270Z,4.42
2023-09-11T12:18:58.619Z,4.00
2023-09-11T12:21:44.461Z,3.98
2023-09-11T12:24:37.357Z,4.30
2023-09-11T12:27:30.687Z,3.85
2023-09-11T12:30:35.831Z,4.42
2023-09-11T12:33:43.325Z,4.75
2023-09-11T12:36:49.006Z,4.67
2023-09-11T12:39:54.517Z,4.62
2023-09-11T12:42:59.460Z,4.42
2023-09-11T12:46:05.059Z,4.30
2023-09-11T12:49:11.156Z,4.80
2023-09-11T12:52:17.195Z,4.40
2023-09-11T12:55:22.243Z,4.90
2023-09-11T12:58:28.165Z,4.75
2023-09-11T13:01:34.124Z,4.87
2023-09-11T13:04:40.011Z,4.67
2023-09-11T13:07:45.624Z,5.20
2023-09-11T13:10:50.397Z,4.90
2023-09-11T13:14:12.880Z,4.30
2023-09-11T13:17:02.736Z,4.30
2023-09-11T13:20:08.479Z,5.33
2023-09-11T13:23:15.227Z,4.35
2023-09-11T13:26:20.539Z,4.17
2023-09-11T13:29:26.604Z,4.78
2023-09-11T13:32:31.903Z,4.37
2023-09-11T13:35:37.274Z,4.60
2023-09-11T13:38:43.925Z,4.60
2023-09-11T13:41:50.894Z,5.22
2023-09-11T13:44:56.432Z,3.80
2023-09-11T13:48:02.327Z,4.58
2023-09-11T13:51:08.306Z,4.53
2023-09-11T13:54:13.872Z,4.53
2023-09-11T13:57:20.214Z,4.28
2023-09-11T14:00:25.914Z,4.40
2023-09-11T14:03:32.543Z,4.17
2023-09-11T14:06:39.888Z,4.30
2023-09-11T14:09:46.182Z,3.12
2023-09-11T14:12:51.364Z,4.00
2023-09-11T14:15:57.064Z,4.20
2023-09-11T14:19:02.617Z,3.90
2023-09-11T14:22:07.344Z,4.22
2023-09-11T14:25:12.975Z,4.37
2023-09-11T14:28:17.784Z,4.30
2023-09-11T14:31:22.791Z,4.40
2023-09-11T14:34:29.538Z,3.95
2023-09-11T14:37:34.167Z,3.87
2023-09-11T14:40:39.919Z,3.60
2023-09-11T14:43:46.086Z,3.62
2023-09-11T14:46:52.488Z,3.92
2023-09-11T14:49:58.740Z,3.98
2023-09-11T14:53:03.913Z,3.98
2023-09-11T14:56:10.156Z,4.55
2023-09-11T14:59:15.789Z,3.90
2023-09-11T15:02:22.048Z,4.37
2023-09-11T15:05:27.328Z,4.08
2023-09-11T15:08:32.830Z,3.87
2023-09-11T15:11:38.167Z,3.87
2023-09-11T15:14:46.325Z,4.15
2023-09-11T15:17:52.701Z,4.42
2023-09-11T15:20:58.961Z,3.75
2023-09-11T15:24:06.487Z,4.47
2023-09-11T15:27:12.496Z,3.72
2023-09-11T15:30:18.754Z,4.28
2023-09-11T15:33:25.868Z,4.03
2023-09-11T15:36:31.766Z,4.08
2023-09-11T15:39:37.681Z,4.70
2023-09-11T15:42:42.742Z,4.03
2023-09-11T15:45:48.442Z,4.30
2023-09-11T15:48:54.384Z,5.00
2023-09-11T15:52:00.295Z,4.67
2023-09-11T15:55:05.452Z,4.53
2023-09-11T15:58:11.896Z,4.67
2023-09-11T16:01:17.865Z,5.75
2023-09-11T16:04:24.278Z,4.67
2023-09-11T16:07:31.504Z,5.00
2023-09-11T16:10:37.327Z,4.80
2023-09-11T16:13:43.408Z,4.95
2023-09-11T16:16:48.538Z,5.50
2023-09-11T16:19:54.347Z,5.15
2023-09-11T16:23:01.758Z,25.70
2023-09-11T16:26:06.962Z,37.53
2023-09-11T16:29:14.161Z,52.88
2023-09-11T16:32:19.800Z,48.60
2023-09-11T16:35:25.871Z,40.80
2023-09-11T16:38:33.517Z,33.67
2023-09-11T16:41:39.132Z,25.85
2023-09-11T16:44:45.535Z,24.40
2023-09-11T16:47:51.020Z,28.05
2023-09-11T16:50:56.171Z,22.93
2023-09-11T16:54:00.903Z,18.70
2023-09-11T16:57:07.664Z,16.40
2023-09-11T17:00:14.298Z,14.05
2023-09-11T17:03:21.061Z,12.95
2023-09-11T17:06:26.634Z,11.15
2023-09-11T17:09:32.287Z,10.60
2023-09-11T17:12:38.206Z,10.45
2023-09-11T17:15:43.708Z,9.80
2023-09-11T17:18:48.637Z,11.97
2023-09-11T17:21:54.785Z,11.10
2023-09-11T17:25:00.475Z,9.43
2023-09-11T17:28:06.308Z,9.75
2023-09-11T17:31:11.956Z,9.63
2023-09-11T17:34:18.259Z,9.60
2023-09-11T17:37:24.639Z,10.70
2023-09-11T17:40:31.246Z,10.95
2023-09-11T17:43:36.829Z,11.48
2023-09-11T17:46:42.457Z,10.58
2023-09-11T17:49:48.394Z,12.50
2023-09-11T17:52:55.677Z,11.12
2023-09-11T17:56:02.024Z,10.40
2023-09-11T17:59:07.660Z,10.45
2023-09-11T18:02:14.696Z,10.78
2023-09-11T18:05:21.257Z,11.85
2023-09-11T18:08:27.119Z,13.35
2023-09-11T18:11:32.778Z,13.98
2023-09-11T18:14:39.455Z,14.45
2023-09-11T18:17:45.757Z,14.03
2023-09-11T18:20:54.075Z,13.28
2023-09-11T18:24:01.972Z,13.38
2023-09-11T18:27:07.439Z,13.62
2023-09-11T18:30:15.303Z,13.53
2023-09-11T18:33:21.305Z,13.35
2023-09-11T18:36:26.766Z,14.40
2023-09-11T18:39:35.360Z,13.75
2023-09-11T18:42:35.609Z,13.90
2023-09-11T18:45:22.956Z,13.83
2023-09-11T18:48:15.882Z,14.00
2023-09-11T18:51:01.928Z,13.60
2023-09-11T18:53:53.708Z,13.70
2023-09-11T18:56:53.114Z,13.20
2023-09-11T18:59:59.266Z,13.22
2023-09-11T19:03:06.398Z,12.98
2023-09-11T19:06:12.753Z,13.70
2023-09-11T19:09:19.838Z,14.87
2023-09-11T19:12:25.648Z,14.30
2023-09-11T19:15:31.112Z,14.33
2023-09-11T19:18:39.605Z,16.20
2023-09-11T19:21:45.479Z,17.15
2023-09-11T19:24:51.115Z,16.07
2023-09-11T19:27:56.624Z,17.12
2023-09-11T19:31:02.214Z,15.85
2023-09-11T19:34:07.754Z,15.93
2023-09-11T19:37:14.100Z,15.53
2023-09-11T19:40:21.426Z,15.55
2023-09-11T19:43:27.507Z,17.73
2023-09-11T19:46:33.041Z,17.82
2023-09-11T19:49:39.450Z,19.30
2023-09-11T19:52:46.022Z,19.60
2023-09-11T19:55:52.452Z,20.65
2023-09-11T19:58:57.426Z,19.00
2023-09-11T20:02:02.806Z,18.40
2023-09-11T20:05:07.538Z,18.42
2023-09-11T20:08:12.638Z,18.92
2023-09-11T20:11:18.123Z,17.00
2023-09-11T20:14:22.927Z,17.02
2023-09-11T20:17:28.131Z,16.50
2023-09-11T20:20:32.963Z,16.55
2023-09-11T20:23:38.460Z,16.42
2023-09-11T20:26:43.466Z,16.65
2023-09-11T20:29:49.010Z,18.20
2023-09-11T20:32:55.435Z,18.60
2023-09-11T20:36:01.136Z,19.70
2023-09-11T20:39:07.451Z,20.30
2023-09-11T20:42:13.258Z,17.80
2023-09-11T20:45:19.126Z,17.40
2023-09-11T20:48:24.677Z,19.25
2023-09-11T20:51:30.857Z,18.20
2023-09-11T20:54:36.543Z,15.88
2023-09-11T20:57:42.200Z,15.00
2023-09-11T21:00:49.949Z,13.20
2023-09-11T21:03:55.903Z,13.20
2023-09-11T21:07:01.815Z,13.05
2023-09-11T21:10:08.750Z,13.15
2023-09-11T21:13:14.437Z,13.35
2023-09-11T21:16:21.447Z,13.98
2023-09-11T21:19:26.596Z,13.93
2023-09-11T21:22:31.871Z,14.07
2023-09-11T21:25:37.830Z,11.95
2023-09-11T21:28:44.662Z,12.53
2023-09-11T21:31:49.666Z,13.45
2023-09-11T21:34:55.261Z,13.22
2023-09-11T21:37:54.631Z,12.28
2023-09-11T21:40:46.631Z,13.95
2023-09-11T21:43:54.017Z,13.15
2023-09-11T21:46:59.777Z,14.03
2023-09-11T21:50:05.240Z,12.45
2023-09-11T21:53:09.929Z,12.88
2023-09-11T21:56:14.940Z,12.35
2023-09-11T21:59:20.595Z,13.30
2023-09-11T22:02:26.560Z,14.83
2023-09-11T22:05:32.732Z,13.05
2023-09-11T22:08:38.058Z,12.85
2023-09-11T22:11:44.796Z,12.73
2023-09-11T22:14:50.223Z,11.70
2023-09-11T22:17:56.142Z,12.40
2023-09-11T22:21:01.960Z,12.00
2023-09-11T22:24:07.605Z,13.18
2023-09-11T22:27:23.518Z,13.38
2023-09-11T22:30:22.066Z,13.28
2023-09-11T22:33:27.705Z,13.98
2023-09-11T22:36:33.208Z,14.40
2023-09-11T22:39:39.208Z,14.30
2023-09-11T22:42:46.086Z,13.70
2023-09-11T22:45:50.910Z,14.53
2023-09-11T22:48:57.090Z,14.18
2023-09-11T22:52:03.748Z,12.00
2023-09-11T22:55:11.636Z,12.40
2023-09-11T22:58:17.309Z,12.90
2023-09-11T23:01:33.235Z,13.58
2023-09-11T23:04:38.533Z,12.13
2023-09-11T23:07:43.216Z,13.13
2023-09-11T23:10:49.002Z,12.05
2023-09-11T23:13:54.360Z,11.85
2023-09-11T23:16:59.670Z,12.93
2023-09-11T23:20:05.539Z,11.57
2023-09-11T23:23:10.552Z,12.73
2023-09-11T23:26:15.942Z,12.55
2023-09-11T23:29:21.800Z,12.73
2023-09-11T23:32:27.615Z,12.00
2023-09-11T23:35:32.713Z,12.35
2023-09-11T23:38:37.899Z,12.50
2023-09-11T23:41:44.386Z,13.00
2023-09-11T23:44:49.892Z,11.73
2023-09-11T23:47:56.531Z,11.08
2023-09-11T23:51:03.288Z,11.45
2023-09-11T23:54:09.422Z,10.85
2023-09-11T23:57:16.206Z,10.88
